Time;durP1;ratioP1;P1;durP2;ratioP2;P2;SDS_P1;SDS_P2;PMS_P1;PMS_P2;Temp;Humidity;BMP_temperature;BMP_pressure;BME280_temperature;BME280_humidity;BME280_pressure;Samples;Min_cycle;Max_cycle;Signal;HPM_P1;HPM_P2
2021/03/11 00:02:18;;;;;;;23.50;16.63;;;;;;;;;;5070824;28;20464;-74
2021/03/11 00:04:44;;;;;;;24.43;17.30;;;;;;;;;;5070782;28;20482;-74
2021/03/11 00:07:10;;;;;;;30.90;18.38;;;;;;;;;;5070945;28;20423;-74
2021/03/11 00:09:36;;;;;;;23.85;16.50;;;;;;;;;;5071260;28;20211;-74
2021/03/11 00:12:03;;;;;;;21.43;15.27;;;;;;;;;;5070912;28;20581;-74
2021/03/11 00:14:29;;;;;;;23.33;16.60;;;;;;;;;;5070503;28;20791;-74
2021/03/11 00:16:55;;;;;;;23.55;14.38;;;;;;;;;;5071309;28;20197;-74
2021/03/11 00:19:21;;;;;;;19.63;15.10;;;;;;;;;;5057176;28;20173;-75
2021/03/11 00:21:47;;;;;;;24.90;17.60;;;;;;;;;;5055146;28;20415;-75
2021/03/11 00:24:13;;;;;;;25.20;14.80;;;;;;;;;;5070951;28;20795;-75
2021/03/11 00:26:39;;;;;;;23.25;14.75;;;;;;;;;;5071019;28;20900;-76
2021/03/11 00:29:05;;;;;;;16.40;12.77;;;;;;;;;;5069039;28;20212;-76
2021/03/11 00:31:31;;;;;;;17.30;12.73;;;;;;;;;;5070888;28;20419;-74
2021/03/11 00:33:57;;;;;;;18.97;13.67;;;;;;;;;;5071163;28;20410;-74
2021/03/11 00:36:23;;;;;;;18.07;13.17;;;;;;;;;;5070353;28;20468;-74
2021/03/11 00:38:49;;;;;;;18.37;13.90;;;;;;;;;;5072648;28;20509;-75
2021/03/11 00:41:15;;;;;;;18.33;12.57;;;;;;;;;;5074750;28;20407;-75
2021/03/11 00:43:41;;;;;;;21.10;13.97;;;;;;;;;;5073925;28;20497;-75
2021/03/11 00:46:06;;;;;;;18.50;12.50;;;;;;;;;;5074217;28;20864;-75
2021/03/11 00:48:33;;;;;;;16.73;9.20;;;;;;;;;;5074032;28;20450;-75
2021/03/11 00:50:58;;;;;;;15.70;11.70;;;;;;;;;;5074234;28;21027;-75
2021/03/11 00:53:24;;;;;;;17.13;12.37;;;;;;;;;;5073408;28;20188;-75
2021/03/11 00:55:50;;;;;;;11.17;9.70;;;;;;;;;;5074097;28;20443;-75
2021/03/11 00:58:16;;;;;;;13.00;10.90;;;;;;;;;;5050232;28;20459;-75
2021/03/11 01:00:42;;;;;;;14.13;11.50;;;;;;;;;;5072024;28;20426;-75
2021/03/11 01:03:08;;;;;;;18.10;11.27;;;;;;;;;;5073860;28;20416;-75
2021/03/11 01:05:35;;;;;;;17.77;12.30;;;;;;;;;;5073870;28;20486;-76
2021/03/11 01:08:01;;;;;;;16.08;11.57;;;;;;;;;;5073719;28;20511;-75
2021/03/11 01:10:27;;;;;;;13.27;10.43;;;;;;;;;;5073686;28;20657;-75
2021/03/11 01:12:53;;;;;;;15.77;12.17;;;;;;;;;;5073131;28;20423;-76
2021/03/11 01:15:19;;;;;;;17.27;11.70;;;;;;;;;;5073854;28;20462;-75
2021/03/11 01:17:45;;;;;;;19.27;11.90;;;;;;;;;;5073615;28;20201;-74
2021/03/11 01:20:13;;;;;;;17.05;11.60;;;;;;;;;;5073823;28;20539;-75
2021/03/11 01:22:39;;;;;;;16.10;12.05;;;;;;;;;;5073107;28;20219;-74
2021/03/11 01:25:05;;;;;;;13.07;10.27;;;;;;;;;;5073523;28;20205;-74
2021/03/11 01:27:32;;;;;;;15.43;9.13;;;;;;;;;;5073877;28;20415;-75
2021/03/11 01:29:58;;;;;;;13.10;9.38;;;;;;;;;;5073413;28;20185;-75
2021/03/11 01:32:24;;;;;;;13.07;9.38;;;;;;;;;;5073591;28;20203;-75
2021/03/11 01:34:50;;;;;;;13.57;9.32;;;;;;;;;;5055720;28;20204;-75
2021/03/11 01:37:16;;;;;;;12.53;9.50;;;;;;;;;;5073154;28;20247;-74
2021/03/11 01:39:42;;;;;;;9.70;7.67;;;;;;;;;;5054831;28;20425;-75
2021/03/11 01:42:08;;;;;;;12.30;9.00;;;;;;;;;;5064913;28;20470;-75
2021/03/11 01:44:34;;;;;;;11.03;7.90;;;;;;;;;;5073233;28;20419;-74
2021/03/11 01:47:00;;;;;;;9.40;7.60;;;;;;;;;;5073331;28;20570;-74
2021/03/11 01:49:25;;;;;;;10.77;7.15;;;;;;;;;;5071932;28;20422;-74
2021/03/11 01:51:53;;;;;;;10.93;7.67;;;;;;;;;;5072854;28;20712;-74
2021/03/11 01:54:19;;;;;;;8.43;6.35;;;;;;;;;;5073113;28;20476;-75
2021/03/11 01:56:45;;;;;;;9.07;6.57;;;;;;;;;;5073512;28;20212;-74
2021/03/11 01:59:11;;;;;;;8.48;6.70;;;;;;;;;;5069758;28;20207;-74
2021/03/11 02:01:37;;;;;;;8.20;6.03;;;;;;;;;;5072699;28;20176;-75
2021/03/11 02:04:03;;;;;;;7.45;5.40;;;;;;;;;;5073232;28;20814;-75
2021/03/11 02:06:29;;;;;;;6.43;4.70;;;;;;;;;;5072596;28;20208;-74
2021/03/11 02:08:55;;;;;;;8.67;5.60;;;;;;;;;;5054117;28;20188;-75
2021/03/11 02:11:26;;;;;;;6.35;5.18;;;;;;;;;;5072897;28;20411;-76
2021/03/11 02:14:04;;;;;;;5.28;4.78;;;;;;;;;;5072611;28;20187;-74
2021/03/11 02:16:34;;;;;;;6.80;4.93;;;;;;;;;;5072709;28;20249;-75
2021/03/11 02:19:07;;;;;;;5.95;4.90;;;;;;;;;;5072348;28;20242;-75
2021/03/11 02:21:36;;;;;;;6.20;4.78;;;;;;;;;;5071840;28;20181;-75
2021/03/11 02:24:21;;;;;;;3.83;2.95;;;;;;;;;;5066444;28;20185;-75
2021/03/11 02:26:53;;;;;;;3.33;3.00;;;;;;;;;;5052786;28;20258;-74
2021/03/11 02:29:26;;;;;;;3.97;2.95;;;;;;;;;;5049827;28;20557;-74
2021/03/11 02:31:55;;;;;;;4.95;4.30;;;;;;;;;;5054611;28;20207;-75
2021/03/11 02:34:22;;;;;;;4.38;3.65;;;;;;;;;;5072527;28;20659;-75
2021/03/11 02:36:55;;;;;;;5.00;3.33;;;;;;;;;;5071354;28;20200;-76
2021/03/11 02:39:23;;;;;;;4.47;3.90;;;;;;;;;;5072558;28;20176;-74
2021/03/11 02:41:52;;;;;;;3.38;2.95;;;;;;;;;;5065847;28;20257;-75
2021/03/11 02:44:18;;;;;;;4.93;4.40;;;;;;;;;;5071611;28;20539;-75
2021/03/11 02:46:44;;;;;;;5.00;3.67;;;;;;;;;;5071573;28;20679;-75
2021/03/11 02:49:10;;;;;;;3.97;2.90;;;;;;;;;;5034396;28;20181;-75
2021/03/11 02:51:37;;;;;;;4.30;3.50;;;;;;;;;;5051812;28;20181;-75
2021/03/11 02:54:03;;;;;;;3.15;2.85;;;;;;;;;;5071431;28;20573;-75
2021/03/11 02:56:29;;;;;;;7.57;3.13;;;;;;;;;;5071916;28;20219;-75
2021/03/11 02:58:56;;;;;;;4.07;3.10;;;;;;;;;;5071603;28;20559;-75
2021/03/11 03:01:23;;;;;;;5.95;4.50;;;;;;;;;;5071987;28;20407;-74
2021/03/11 03:03:52;;;;;;;4.97;3.72;;;;;;;;;;5071842;28;20255;-75
2021/03/11 03:06:18;;;;;;;5.38;3.92;;;;;;;;;;5071343;28;20209;-75
2021/03/11 03:08:45;;;;;;;4.50;3.72;;;;;;;;;;5071351;28;20217;-75
2021/03/11 03:11:12;;;;;;;5.93;4.05;;;;;;;;;;5071880;28;20208;-75
2021/03/11 03:13:41;;;;;;;3.95;3.10;;;;;;;;;;5071131;28;20188;-75
2021/03/11 03:16:07;;;;;;;4.80;4.07;;;;;;;;;;5071734;28;20200;-74
2021/03/11 03:18:34;;;;;;;7.72;5.32;;;;;;;;;;5071335;28;20231;-75
2021/03/11 03:21:04;;;;;;;6.80;5.28;;;;;;;;;;5071666;28;20535;-75
2021/03/11 03:23:30;;;;;;;4.78;4.10;;;;;;;;;;5071095;28;20256;-77
2021/03/11 03:25:56;;;;;;;3.67;2.97;;;;;;;;;;5071691;28;20226;-75
2021/03/11 03:28:22;;;;;;;4.20;3.83;;;;;;;;;;5053131;28;20207;-75
2021/03/11 03:30:48;;;;;;;4.90;4.03;;;;;;;;;;5053994;28;20412;-75
2021/03/11 03:33:16;;;;;;;5.50;4.77;;;;;;;;;;5053090;28;20408;-75
2021/03/11 03:35:42;;;;;;;4.93;3.95;;;;;;;;;;5052772;28;20988;-76
2021/03/11 03:38:09;;;;;;;5.10;3.78;;;;;;;;;;5040147;28;20173;-76
2021/03/11 03:40:35;;;;;;;3.90;2.72;;;;;;;;;;5052409;28;20640;-75
2021/03/11 03:43:10;;;;;;;4.90;3.88;;;;;;;;;;5060745;28;20560;-75
2021/03/11 03:45:39;;;;;;;3.78;3.15;;;;;;;;;;5071165;28;20304;-75
2021/03/11 03:48:07;;;;;;;2.90;2.53;;;;;;;;;;5071260;28;20180;-74
2021/03/11 03:50:33;;;;;;;4.70;3.60;;;;;;;;;;5071004;28;20213;-75
2021/03/11 03:53:02;;;;;;;5.10;4.18;;;;;;;;;;5071076;28;20181;-75
2021/03/11 03:55:29;;;;;;;3.67;3.03;;;;;;;;;;5071507;28;20727;-75
2021/03/11 03:57:55;;;;;;;3.60;3.30;;;;;;;;;;5066210;28;20616;-75
2021/03/11 04:00:22;;;;;;;5.68;3.63;;;;;;;;;;5070844;28;20188;-74
2021/03/11 04:02:50;;;;;;;4.95;4.03;;;;;;;;;;5071123;28;20169;-74
2021/03/11 04:05:17;;;;;;;5.00;4.50;;;;;;;;;;5046835;28;20214;-75
2021/03/11 04:07:46;;;;;;;6.07;5.00;;;;;;;;;;5051831;28;20652;-74
2021/03/11 04:10:12;;;;;;;4.43;3.20;;;;;;;;;;5071403;28;20226;-74
2021/03/11 04:12:38;;;;;;;5.60;4.55;;;;;;;;;;5071421;28;20184;-74
2021/03/11 04:15:06;;;;;;;6.72;4.68;;;;;;;;;;5074097;28;20201;-74
2021/03/11 04:17:33;;;;;;;3.80;3.50;;;;;;;;;;5075138;28;20683;-74
2021/03/11 04:20:01;;;;;;;5.97;4.97;;;;;;;;;;5075291;28;20671;-75
2021/03/11 04:22:27;;;;;;;8.15;4.18;;;;;;;;;;5074171;28;20596;-75
2021/03/11 04:24:53;;;;;;;6.55;4.85;;;;;;;;;;5074645;28;20188;-75
2021/03/11 04:27:20;;;;;;;6.03;4.60;;;;;;;;;;5075090;28;20644;-74
2021/03/11 04:29:46;;;;;;;6.43;4.63;;;;;;;;;;5074645;28;20212;-75
2021/03/11 04:32:13;;;;;;;5.72;4.68;;;;;;;;;;5059127;28;20239;-74
2021/03/11 04:34:39;;;;;;;6.50;4.63;;;;;;;;;;5063768;28;20188;-74
2021/03/11 04:37:05;;;;;;;5.80;5.20;;;;;;;;;;5074289;28;20706;-74
2021/03/11 04:39:32;;;;;;;4.28;3.30;;;;;;;;;;5069762;28;21091;-74
2021/03/11 04:41:58;;;;;;;4.45;3.60;;;;;;;;;;5055148;28;20345;-74
2021/03/11 04:44:27;;;;;;;4.07;3.15;;;;;;;;;;5074280;28;20201;-74
2021/03/11 04:46:55;;;;;;;3.38;3.05;;;;;;;;;;5074725;28;20181;-74
2021/03/11 04:49:22;;;;;;;4.65;3.60;;;;;;;;;;5073535;28;20170;-74
2021/03/11 04:51:48;;;;;;;5.05;4.40;;;;;;;;;;5073968;28;20256;-75
2021/03/11 04:54:14;;;;;;;3.60;3.30;;;;;;;;;;5074174;28;20268;-75
2021/03/11 04:56:41;;;;;;;4.95;3.70;;;;;;;;;;5074337;28;20877;-72
2021/03/11 04:59:07;;;;;;;3.05;2.70;;;;;;;;;;5055532;28;20181;-74
2021/03/11 05:01:36;;;;;;;3.55;3.25;;;;;;;;;;5074097;28;20169;-74
2021/03/11 05:04:02;;;;;;;3.95;2.85;;;;;;;;;;5074102;28;20927;-75
2021/03/11 05:06:28;;;;;;;3.97;3.42;;;;;;;;;;5085435;22;20233;-75
2021/03/11 05:08:54;;;;;;;3.50;2.57;;;;;;;;;;5067925;28;20554;-75
2021/03/11 05:11:20;;;;;;;3.30;2.87;;;;;;;;;;5054387;28;20435;-75
2021/03/11 05:13:46;;;;;;;2.77;2.57;;;;;;;;;;5053827;28;20407;-74
2021/03/11 05:16:12;;;;;;;3.97;3.00;;;;;;;;;;5068523;28;20505;-75
2021/03/11 05:18:38;;;;;;;2.70;2.50;;;;;;;;;;5055436;28;20496;-75
2021/03/11 05:21:04;;;;;;;2.90;2.20;;;;;;;;;;5034140;28;20409;-75
2021/03/11 05:23:30;;;;;;;4.20;3.50;;;;;;;;;;5036873;28;20413;-75
2021/03/11 05:25:56;;;;;;;3.30;3.00;;;;;;;;;;5052735;28;20215;-75
2021/03/11 05:28:22;;;;;;;3.57;2.97;;;;;;;;;;5048718;28;20824;-75
2021/03/11 05:30:48;;;;;;;4.82;3.15;;;;;;;;;;5051810;28;20416;-75
2021/03/11 05:33:15;;;;;;;3.25;2.95;;;;;;;;;;5053394;28;20633;-75
2021/03/11 05:35:41;;;;;;;2.80;2.33;;;;;;;;;;5057787;28;20198;-74
2021/03/11 05:38:07;;;;;;;3.38;3.05;;;;;;;;;;5041387;28;20537;-75
2021/03/11 05:40:34;;;;;;;3.60;3.30;;;;;;;;;;5033609;28;20182;-74
2021/03/11 05:43:02;;;;;;;4.63;3.50;;;;;;;;;;5034662;28;20178;-75
2021/03/11 05:45:28;;;;;;;3.15;2.85;;;;;;;;;;5035239;28;20270;-75
2021/03/11 05:47:54;;;;;;;4.10;2.83;;;;;;;;;;5045047;28;20175;-74
2021/03/11 05:50:21;;;;;;;3.47;2.97;;;;;;;;;;5033494;28;20210;-73
2021/03/11 05:52:47;;;;;;;4.97;4.05;;;;;;;;;;5046967;28;20225;-75
2021/03/11 05:55:14;;;;;;;4.28;3.85;;;;;;;;;;5049595;28;20311;-74
2021/03/11 05:57:46;;;;;;;5.82;3.97;;;;;;;;;;5042592;28;20916;-74
2021/03/11 06:00:14;;;;;;;4.45;3.55;;;;;;;;;;5042044;28;20169;-74
2021/03/11 06:02:41;;;;;;;4.00;3.60;;;;;;;;;;5043211;28;20308;-74
2021/03/11 06:05:07;;;;;;;5.22;4.47;;;;;;;;;;5042134;28;20221;-76
2021/03/11 06:07:33;;;;;;;5.00;4.15;;;;;;;;;;5046177;28;20189;-75
2021/03/11 06:10:03;;;;;;;4.78;4.28;;;;;;;;;;5042964;28;20208;-75
2021/03/11 06:12:30;;;;;;;4.95;4.55;;;;;;;;;;5038974;28;20245;-75
2021/03/11 06:15:22;;;;;;;7.65;4.63;;;;;;;;;;5042036;28;20233;-75
2021/03/11 06:17:49;;;;;;;6.38;4.72;;;;;;;;;;5041338;28;20224;-75
2021/03/11 06:20:15;;;;;;;4.72;4.22;;;;;;;;;;5034367;28;20201;-75
2021/03/11 06:22:41;;;;;;;5.65;4.55;;;;;;;;;;5043914;28;20182;-75
2021/03/11 06:25:08;;;;;;;4.30;3.90;;;;;;;;;;5051373;28;20188;-74
2021/03/11 06:27:34;;;;;;;4.90;3.22;;;;;;;;;;5052579;28;20424;-75
2021/03/11 06:30:01;;;;;;;5.72;4.70;;;;;;;;;;5049436;28;20190;-75
2021/03/11 06:32:27;;;;;;;4.13;2.83;;;;;;;;;;5044869;28;20268;-75
2021/03/11 06:34:53;;;;;;;2.63;2.33;;;;;;;;;;5047050;28;20222;-75
2021/03/11 06:37:41;;;;;;;5.10;3.60;;;;;;;;;;5043358;28;20632;-75
2021/03/11 06:40:14;;;;;;;3.50;2.65;;;;;;;;;;5051953;28;20264;-75
2021/03/11 06:42:40;;;;;;;2.40;2.08;;;;;;;;;;5051996;28;20205;-75
2021/03/11 06:45:25;;;;;;;6.25;4.10;;;;;;;;;;5050174;28;20297;-76
2021/03/11 06:47:52;;;;;;;3.03;2.30;;;;;;;;;;5052896;28;20300;-75
2021/03/11 06:50:18;;;;;;;4.72;3.15;;;;;;;;;;5051179;28;20177;-75
2021/03/11 06:53:03;;;;;;;4.53;3.72;;;;;;;;;;5048010;28;20192;-75
2021/03/11 06:55:29;;;;;;;3.95;3.30;;;;;;;;;;5050767;28;20205;-75
2021/03/11 06:57:55;;;;;;;5.95;4.43;;;;;;;;;;5052230;28;20237;-75
2021/03/11 07:00:24;;;;;;;4.37;3.93;;;;;;;;;;5048721;28;20216;-76
2021/03/11 07:02:57;;;;;;;4.82;3.60;;;;;;;;;;5051792;28;20789;-76
2021/03/11 07:05:25;;;;;;;4.50;4.10;;;;;;;;;;5048622;28;20201;-75
2021/03/11 07:08:03;;;;;;;3.65;2.72;;;;;;;;;;5047882;28;20189;-75
2021/03/11 07:10:29;;;;;;;2.97;2.67;;;;;;;;;;5043886;28;20787;-75
2021/03/11 07:12:56;;;;;;;3.60;3.10;;;;;;;;;;5051435;28;20182;-75
2021/03/11 07:15:23;;;;;;;2.95;2.50;;;;;;;;;;5053135;28;20580;-76
2021/03/11 07:17:52;;;;;;;3.97;2.53;;;;;;;;;;5055310;28;20651;-75
2021/03/11 07:20:19;;;;;;;3.13;2.75;;;;;;;;;;5051728;28;20181;-75
2021/03/11 07:23:01;;;;;;;2.63;2.13;;;;;;;;;;5050575;28;20260;-75
2021/03/11 07:25:29;;;;;;;5.60;2.72;;;;;;;;;;5053356;28;20201;-75
2021/03/11 07:27:55;;;;;;;3.35;1.95;;;;;;;;;;5062818;28;20191;-76
2021/03/11 07:30:22;;;;;;;4.47;2.05;;;;;;;;;;5065573;28;20220;-75
2021/03/11 07:32:48;;;;;;;2.28;2.08;;;;;;;;;;5047348;28;20591;-75
2021/03/11 07:35:18;;;;;;;2.75;2.30;;;;;;;;;;5047658;28;20209;-76
2021/03/11 07:37:48;;;;;;;2.95;2.60;;;;;;;;;;5049146;28;20734;-76
2021/03/11 07:40:14;;;;;;;4.35;3.30;;;;;;;;;;5051744;28;20177;-75
2021/03/11 07:42:41;;;;;;;2.15;1.75;;;;;;;;;;5051227;28;20165;-76
2021/03/11 07:45:08;;;;;;;1.92;1.80;;;;;;;;;;5039083;28;20193;-76
2021/03/11 07:47:35;;;;;;;3.13;2.03;;;;;;;;;;5044744;28;20200;-76
2021/03/11 07:50:02;;;;;;;2.85;2.65;;;;;;;;;;5050702;28;20180;-75
2021/03/11 07:52:28;;;;;;;2.80;2.40;;;;;;;;;;5051250;28;20255;-76
2021/03/11 07:54:54;;;;;;;3.15;2.85;;;;;;;;;;5052406;28;20192;-76
2021/03/11 07:57:21;;;;;;;2.33;2.13;;;;;;;;;;5049460;28;20222;-75
2021/03/11 07:59:47;;;;;;;2.65;2.00;;;;;;;;;;5054144;28;20186;-76
2021/03/11 08:02:16;;;;;;;2.90;2.53;;;;;;;;;;5055232;28;20223;-75
2021/03/11 08:04:43;;;;;;;2.92;2.63;;;;;;;;;;5055202;28;20249;-75
2021/03/11 08:07:15;;;;;;;3.28;2.53;;;;;;;;;;5050999;28;20212;-75
2021/03/11 08:09:41;;;;;;;9.70;3.25;;;;;;;;;;5050678;28;20193;-75
2021/03/11 08:12:41;;;;;;;8.80;3.37;;;;;;;;;;5055041;28;20547;-75
2021/03/11 08:15:08;;;;;;;3.50;3.20;;;;;;;;;;4992898;28;20500;-74
2021/03/11 08:17:34;;;;;;;3.95;3.00;;;;;;;;;;5035286;28;20251;-75
2021/03/11 08:20:01;;;;;;;4.20;2.25;;;;;;;;;;5043288;28;20188;-75
2021/03/11 08:22:45;;;;;;;3.28;2.45;;;;;;;;;;5052557;28;20188;-75
2021/03/11 08:25:30;;;;;;;6.53;2.72;;;;;;;;;;5051020;28;20219;-76
2021/03/11 08:27:56;;;;;;;3.95;3.30;;;;;;;;;;5054767;28;20265;-76
2021/03/11 08:30:34;;;;;;;3.20;2.27;;;;;;;;;;5043318;28;20221;-76
2021/03/11 08:33:00;;;;;;;3.40;3.10;;;;;;;;;;5034647;28;20404;-75
2021/03/11 08:35:29;;;;;;;3.20;2.25;;;;;;;;;;5042125;28;20618;-76
2021/03/11 08:37:55;;;;;;;5.40;2.95;;;;;;;;;;5047221;28;20210;-76
2021/03/11 08:40:33;;;;;;;3.50;3.10;;;;;;;;;;5057189;28;20178;-76
2021/03/11 08:42:59;;;;;;;4.85;3.42;;;;;;;;;;5052443;28;20201;-76
2021/03/11 08:45:34;;;;;;;7.50;5.40;;;;;;;;;;5052738;28;20244;-76
2021/03/11 08:48:19;;;;;;;4.40;3.67;;;;;;;;;;5054712;28;20447;-76
2021/03/11 08:50:45;;;;;;;4.25;3.15;;;;;;;;;;5053271;28;20185;-76
2021/03/11 08:53:11;;;;;;;3.58;3.28;;;;;;;;;;5046960;28;20213;-76
2021/03/11 08:55:38;;;;;;;3.25;2.95;;;;;;;;;;5054448;28;20205;-76
2021/03/11 08:58:05;;;;;;;7.63;3.30;;;;;;;;;;5046075;28;20692;-76
2021/03/11 09:00:54;;;;;;;4.63;3.47;;;;;;;;;;5047599;28;20193;-76
2021/03/11 09:03:40;;;;;;;7.05;4.28;;;;;;;;;;5044786;28;20537;-75
2021/03/11 09:06:06;;;;;;;5.75;3.70;;;;;;;;;;5047615;28;20304;-76
2021/03/11 09:08:34;;;;;;;5.43;3.85;;;;;;;;;;5052979;28;20194;-76
2021/03/11 09:11:10;;;;;;;4.70;3.65;;;;;;;;;;5053317;28;20228;-77
2021/03/11 09:13:36;;;;;;;5.60;4.13;;;;;;;;;;5053036;28;20177;-76
2021/03/11 09:16:02;;;;;;;6.53;4.28;;;;;;;;;;5035921;28;20205;-76
2021/03/11 09:18:28;;;;;;;7.45;5.15;;;;;;;;;;5036308;28;20188;-75
2021/03/11 09:20:54;;;;;;;9.13;4.45;;;;;;;;;;5040950;28;20204;-77
2021/03/11 09:23:20;;;;;;;6.65;3.20;;;;;;;;;;5044383;28;20202;-75
2021/03/11 09:25:46;;;;;;;4.27;2.13;;;;;;;;;;5030634;28;20883;-77
2021/03/11 09:28:14;;;;;;;3.63;2.10;;;;;;;;;;5046972;28;20482;-77
2021/03/11 09:30:41;;;;;;;9.02;3.55;;;;;;;;;;5044827;28;20420;-76
2021/03/11 09:33:08;;;;;;;7.80;2.40;;;;;;;;;;5051163;28;20212;-76
2021/03/11 09:35:34;;;;;;;9.38;2.17;;;;;;;;;;5050158;28;20259;-76
2021/03/11 09:38:01;;;;;;;7.25;2.50;;;;;;;;;;5050480;28;20661;-76
2021/03/11 09:40:32;;;;;;;4.25;2.05;;;;;;;;;;5052862;28;20173;-76
2021/03/11 09:43:18;;;;;;;7.80;2.58;;;;;;;;;;5051244;28;20264;-76
2021/03/11 09:45:52;;;;;;;8.48;2.55;;;;;;;;;;5024588;28;20213;-76
2021/03/11 09:48:34;;;;;;;5.68;2.55;;;;;;;;;;5051413;28;20212;-76
2021/03/11 09:51:03;;;;;;;10.80;2.90;;;;;;;;;;5050551;28;20186;-75
2021/03/11 09:53:54;;;;;;;8.38;2.55;;;;;;;;;;5049974;28;20684;-76
2021/03/11 09:56:27;;;;;;;12.52;3.08;;;;;;;;;;5042913;28;20221;-76
2021/03/11 09:58:54;;;;;;;6.38;2.92;;;;;;;;;;5042459;28;20602;-75
2021/03/11 10:01:26;;;;;;;11.57;3.53;;;;;;;;;;5040311;28;20610;-76
2021/03/11 10:03:53;;;;;;;11.93;2.67;;;;;;;;;;5033423;28;20188;-76
2021/03/11 10:06:19;;;;;;;11.43;3.25;;;;;;;;;;5028741;28;557167;-76
2021/03/11 10:08:45;;;;;;;8.15;3.30;;;;;;;;;;5048829;28;20235;-77
2021/03/11 10:11:13;;;;;;;8.40;2.13;;;;;;;;;;5052860;28;20232;-77
2021/03/11 10:13:39;;;;;;;14.50;3.67;;;;;;;;;;5050386;28;20831;-77
2021/03/11 10:16:05;;;;;;;6.40;3.37;;;;;;;;;;5052788;28;20203;-77
2021/03/11 10:18:32;;;;;;;14.35;2.92;;;;;;;;;;5049886;28;20401;-77
2021/03/11 10:21:05;;;;;;;13.13;4.10;;;;;;;;;;5051303;28;20194;-77
2021/03/11 10:23:31;;;;;;;9.10;3.00;;;;;;;;;;5049525;28;20530;-77
2021/03/11 10:26:14;;;;;;;9.90;4.47;;;;;;;;;;5058000;28;20229;-77
2021/03/11 10:28:41;;;;;;;7.32;2.95;;;;;;;;;;5072637;28;20182;-77
2021/03/11 10:31:08;;;;;;;6.95;3.33;;;;;;;;;;5056635;28;20177;-78
2021/03/11 10:33:34;;;;;;;5.90;3.30;;;;;;;;;;5053525;28;20932;-77
2021/03/11 10:36:10;;;;;;;5.40;2.90;;;;;;;;;;5048474;28;20209;-78
2021/03/11 10:38:37;;;;;;;18.38;5.05;;;;;;;;;;5053418;28;20177;-78
2021/03/11 10:41:13;;;;;;;5.15;3.30;;;;;;;;;;5054334;28;20173;-78
2021/03/11 10:43:40;;;;;;;4.25;3.05;;;;;;;;;;5068137;28;20180;-77
2021/03/11 10:46:06;;;;;;;4.32;3.00;;;;;;;;;;5055655;28;20196;-78
2021/03/11 10:48:51;;;;;;;6.20;3.20;;;;;;;;;;5049709;28;20192;-77
2021/03/11 10:51:20;;;;;;;8.52;4.85;;;;;;;;;;5048676;28;20206;-78
2021/03/11 10:53:46;;;;;;;9.48;2.65;;;;;;;;;;5047660;28;20177;-77
2021/03/11 10:56:12;;;;;;;6.35;2.55;;;;;;;;;;5050980;28;20229;-77
2021/03/11 10:58:39;;;;;;;7.70;2.22;;;;;;;;;;5053522;28;20181;-78
2021/03/11 11:01:08;;;;;;;6.20;2.05;;;;;;;;;;5053483;28;20177;-77
2021/03/11 11:03:35;;;;;;;8.38;2.92;;;;;;;;;;5052686;28;20645;-78
2021/03/11 11:06:01;;;;;;;4.07;1.85;;;;;;;;;;5063578;22;20290;-72
2021/03/11 11:08:28;;;;;;;5.20;2.10;;;;;;;;;;5060817;28;20239;-71
2021/03/11 11:10:54;;;;;;;19.75;4.05;;;;;;;;;;5056471;28;20238;-72
2021/03/11 11:13:20;;;;;;;2.87;1.63;;;;;;;;;;5049575;28;20188;-72
2021/03/11 11:15:46;;;;;;;4.63;2.17;;;;;;;;;;5053674;28;20471;-71
2021/03/11 11:18:11;;;;;;;4.07;2.07;;;;;;;;;;5056731;28;20477;-71
2021/03/11 11:20:37;;;;;;;2.93;1.73;;;;;;;;;;5056132;28;20427;-72
2021/03/11 11:23:04;;;;;;;3.97;1.93;;;;;;;;;;5052321;28;20402;-72
2021/03/11 11:25:31;;;;;;;10.53;3.20;;;;;;;;;;5054249;28;20412;-72
2021/03/11 11:27:57;;;;;;;7.67;2.43;;;;;;;;;;5051227;28;20395;-72
2021/03/11 11:30:24;;;;;;;10.33;2.80;;;;;;;;;;5049105;28;20471;-72
2021/03/11 11:32:50;;;;;;;5.87;1.70;;;;;;;;;;5054262;28;20416;-73
2021/03/11 11:35:17;;;;;;;5.13;2.13;;;;;;;;;;5052944;28;20436;-72
2021/03/11 11:37:44;;;;;;;6.97;2.07;;;;;;;;;;5052706;28;20449;-72
2021/03/11 11:40:10;;;;;;;4.10;2.60;;;;;;;;;;5053696;28;20398;-72
2021/03/11 11:42:36;;;;;;;6.60;2.07;;;;;;;;;;5052378;28;20810;-72
2021/03/11 11:45:03;;;;;;;4.80;1.90;;;;;;;;;;5051358;28;20439;-71
2021/03/11 11:47:30;;;;;;;6.23;2.40;;;;;;;;;;5048564;28;20455;-72
2021/03/11 11:49:55;;;;;;;5.27;2.70;;;;;;;;;;5049728;28;20497;-72
2021/03/11 11:52:21;;;;;;;3.30;2.57;;;;;;;;;;5049600;28;20437;-72
2021/03/11 11:54:48;;;;;;;9.83;2.60;;;;;;;;;;5051654;28;20777;-72
2021/03/11 11:57:13;;;;;;;3.97;2.93;;;;;;;;;;5049397;28;20497;-72
2021/03/11 11:59:39;;;;;;;5.77;2.53;;;;;;;;;;5037740;28;20439;-73
2021/03/11 12:02:05;;;;;;;8.03;2.00;;;;;;;;;;5051961;28;20416;-72
2021/03/11 12:04:31;;;;;;;12.63;2.93;;;;;;;;;;5050607;28;20429;-72
2021/03/11 12:06:58;;;;;;;5.23;2.10;;;;;;;;;;5048384;28;20530;-71
2021/03/11 12:09:24;;;;;;;8.83;2.57;;;;;;;;;;5050228;28;20447;-72
2021/03/11 12:11:50;;;;;;;9.00;2.63;;;;;;;;;;5050843;28;20440;-72
2021/03/11 12:14:16;;;;;;;7.47;2.17;;;;;;;;;;5053655;28;20402;-72
2021/03/11 12:16:42;;;;;;;10.50;1.97;;;;;;;;;;5053090;28;20485;-72
2021/03/11 12:19:08;;;;;;;8.20;2.27;;;;;;;;;;5050735;28;20532;-72
2021/03/11 12:21:34;;;;;;;5.80;2.80;;;;;;;;;;5050114;28;20923;-72
2021/03/11 12:24:02;;;;;;;6.27;2.40;;;;;;;;;;5051075;28;20974;-72
2021/03/11 12:26:28;;;;;;;8.03;3.40;;;;;;;;;;5042733;28;20528;-72
2021/03/11 12:28:54;;;;;;;8.60;2.70;;;;;;;;;;5050697;28;20939;-72
2021/03/11 12:31:20;;;;;;;8.43;2.00;;;;;;;;;;5049827;28;20802;-72
2021/03/11 12:33:49;;;;;;;5.73;1.60;;;;;;;;;;5050338;28;20438;-72
2021/03/11 12:36:15;;;;;;;2.37;1.50;;;;;;;;;;5042998;28;20466;-72
2021/03/11 12:38:42;;;;;;;5.20;1.60;;;;;;;;;;5047685;28;20453;-72
2021/03/11 12:41:08;;;;;;;4.57;1.93;;;;;;;;;;5049523;28;21015;-72
2021/03/11 12:43:34;;;;;;;3.30;1.57;;;;;;;;;;5050661;28;20603;-72
2021/03/11 12:46:01;;;;;;;3.97;1.87;;;;;;;;;;5056135;28;20839;-72
2021/03/11 12:48:27;;;;;;;4.43;1.50;;;;;;;;;;5053824;28;20450;-72
2021/03/11 12:50:53;;;;;;;6.37;2.77;;;;;;;;;;5054847;28;20424;-72
2021/03/11 12:53:20;;;;;;;4.20;1.57;;;;;;;;;;5055002;28;20438;-71
2021/03/11 12:55:46;;;;;;;3.83;2.47;;;;;;;;;;5054775;28;20458;-72
2021/03/11 12:58:12;;;;;;;6.70;2.73;;;;;;;;;;5055979;28;20474;-71
2021/03/11 13:00:39;;;;;;;2.30;1.07;;;;;;;;;;5054962;28;20438;-72
2021/03/11 13:03:05;;;;;;;2.77;1.40;;;;;;;;;;5050311;28;20473;-72
2021/03/11 13:05:31;;;;;;;3.77;1.60;;;;;;;;;;5055048;28;20432;-72
2021/03/11 13:07:57;;;;;;;8.40;1.97;;;;;;;;;;5056166;28;20440;-72
2021/03/11 13:10:24;;;;;;;6.63;1.97;;;;;;;;;;5057149;28;20419;-72
2021/03/11 13:12:50;;;;;;;5.10;2.13;;;;;;;;;;5056664;28;20511;-72
2021/03/11 13:15:18;;;;;;;5.07;1.97;;;;;;;;;;5056457;28;20456;-72
2021/03/11 13:17:45;;;;;;;5.83;1.87;;;;;;;;;;5056789;28;20471;-72
2021/03/11 13:20:11;;;;;;;2.50;1.53;;;;;;;;;;5055752;28;20436;-71
2021/03/11 13:22:37;;;;;;;4.23;1.53;;;;;;;;;;5052864;28;20405;-72
2021/03/11 13:25:03;;;;;;;1.83;1.50;;;;;;;;;;5057532;28;20775;-72
2021/03/11 13:27:29;;;;;;;7.70;1.57;;;;;;;;;;5057576;28;20439;-72
2021/03/11 13:29:55;;;;;;;4.10;1.40;;;;;;;;;;5056061;28;20424;-71
2021/03/11 13:32:21;;;;;;;3.60;1.70;;;;;;;;;;5054688;28;20402;-72
2021/03/11 13:34:47;;;;;;;8.20;2.47;;;;;;;;;;5052679;28;20998;-71
2021/03/11 13:37:13;;;;;;;5.17;1.90;;;;;;;;;;5051582;28;20533;-72
2021/03/11 13:39:39;;;;;;;5.87;1.70;;;;;;;;;;5058280;28;20669;-72
2021/03/11 13:42:05;;;;;;;3.70;1.50;;;;;;;;;;5055962;28;20403;-71
2021/03/11 13:44:31;;;;;;;2.80;1.83;;;;;;;;;;5055183;28;20431;-74
2021/03/11 13:46:57;;;;;;;5.60;1.57;;;;;;;;;;5055432;28;20505;-71
2021/03/11 13:49:23;;;;;;;6.10;2.20;;;;;;;;;;5055303;28;20427;-71
2021/03/11 13:51:49;;;;;;;8.77;1.30;;;;;;;;;;5054302;28;20426;-72
2021/03/11 13:54:15;;;;;;;9.03;1.77;;;;;;;;;;5055149;28;20416;-71
2021/03/11 13:56:41;;;;;;;5.83;1.67;;;;;;;;;;5055421;28;20483;-72
2021/03/11 13:59:07;;;;;;;5.53;1.50;;;;;;;;;;5054274;28;20424;-71
2021/03/11 14:01:33;;;;;;;10.37;2.30;;;;;;;;;;5055514;28;20895;-72
2021/03/11 14:03:59;;;;;;;7.13;2.43;;;;;;;;;;5055632;28;20411;-71
2021/03/11 14:06:25;;;;;;;13.27;2.53;;;;;;;;;;5054221;28;20446;-71
2021/03/11 14:08:51;;;;;;;6.07;1.80;;;;;;;;;;5053242;28;20418;-72
2021/03/11 14:11:17;;;;;;;3.37;2.03;;;;;;;;;;5053058;28;20385;-72
2021/03/11 14:13:43;;;;;;;10.27;2.00;;;;;;;;;;5054113;28;20557;-71
2021/03/11 14:16:09;;;;;;;4.37;1.90;;;;;;;;;;5051831;28;20474;-71
2021/03/11 14:18:35;;;;;;;10.45;2.50;;;;;;;;;;5053130;28;20436;-71
2021/03/11 14:21:01;;;;;;;8.50;3.03;;;;;;;;;;5053753;28;20541;-71
2021/03/11 14:23:27;;;;;;;6.10;1.47;;;;;;;;;;5052758;28;20183;-72
2021/03/11 14:25:53;;;;;;;6.65;2.35;;;;;;;;;;5056465;28;20417;-71
2021/03/11 14:28:19;;;;;;;2.10;1.37;;;;;;;;;;5054366;28;20261;-71
2021/03/11 14:30:45;;;;;;;2.80;1.48;;;;;;;;;;5055086;28;20425;-71
2021/03/11 14:33:11;;;;;;;2.90;1.90;;;;;;;;;;5051254;28;20195;-71
2021/03/11 14:35:37;;;;;;;9.23;2.10;;;;;;;;;;5051241;28;20440;-73
2021/03/11 14:38:03;;;;;;;5.07;1.52;;;;;;;;;;5053208;28;20214;-71
2021/03/11 14:40:30;;;;;;;5.70;1.77;;;;;;;;;;5055132;28;20192;-71
2021/03/11 14:42:55;;;;;;;3.55;1.88;;;;;;;;;;5054619;28;20219;-72
2021/03/11 14:45:22;;;;;;;6.30;1.57;;;;;;;;;;5054896;28;20189;-72